• Join FlightAware (Why Join?)
  • Login
  • US Flag 
02:06PM EST


 

Airport Tracker/Info


-or-


 

Live Flight TrackerFlight Track Log ✈ N244A ✈ 08-Sep-2013 ✈ KEGE - KPWK

Flight Track Log - Related Links

Times and Time Zones

All times are in EDT time to prevent confusion due to time zone crossing. See the N244A flight status page for this flight to view local times or setup timezone preferences in your user account.

Time Position Orientation Groundspeed Altitude Reporting Facility
EDT Latitude Longitude Course Direction KTS MPH feet Rate Location/Type
07:02PM 39.6308 -106.9506 72° East 172 198 7,600  Level Denver Center
07:03PM 39.5978 -106.9972 227° Southwest 190 219 9,700 2,040 Climbing Denver Center
07:04PM 39.6469 -107.0422 325° Northwest 248 285 11,900 2,220 Climbing Denver Center
07:05PM 39.7272 -107.0744 343° North 286 329 14,400 2,700 Climbing Denver Center
07:06PM 39.8341 -106.0267 74° East  Level Estimated
07:06PM 39.7936 -107.0344 25° Northeast 299 344 17,500  Level Denver Center
07:07PM 39.8654 -105.8781 72° East  Level Estimated
07:07PM 39.8208 -106.9331 71° East 298 343 19,400  Level Denver Center
07:08PM 39.8658 -106.8214 62° Northeast 346 398 22,300 2,100 Climbing Denver Center
07:09PM 39.9161 -106.6842 64° Northeast 352 405 23,800 1,440 Climbing Denver Center
07:10PM 39.9542 -106.5844 64° Northeast 372 428 25,300 1,200 Climbing Denver Center
07:11PM 40.0133 -106.4161 65° Northeast 404 465 26,300 1,320 Climbing Denver Center
07:12PM 40.0439 -106.2669 75° East 427 491 28,100 1,500 Climbing Denver Center
07:13PM 40.0725 -106.1172 76° East 427 491 29,400 960 Climbing Denver Center
07:14PM 40.1042 -105.9614 75° East 443 510 30,200 1,140 Climbing Denver Center
07:15PM 40.1381 -105.8019 74° East 458 527 31,800 1,440 Climbing Denver Center
07:16PM 40.1683 -105.6475 76° East 438 504 33,200 900 Climbing Denver Center
07:17PM 40.1997 -105.4903 75° East 446 513 33,700 780 Climbing Denver Center
07:18PM 40.2367 -105.3014 76° East 447 514 34,900 1,080 Climbing Denver Center
07:19PM 40.2672 -105.1442 76° East 445 512 36,000 780 Climbing Denver Center
07:20PM 40.2994 -104.9856 75° East 449 517 36,600 480 Climbing Denver Center
07:21PM 40.3317 -104.8253 75° East 452 520 37,000 180 Climbing Denver Center
07:23PM 40.3642 -104.6569 76° East 471 542 37,000  Level Denver Center
07:24PM 40.3969 -104.4858 76° East 481 554 37,000  Level Denver Center
07:25PM 40.4294 -104.3086 76° East 494 568 37,000  Level Denver Center
07:26PM 40.4686 -104.0975 76° East 496 571 37,000  Level Denver Center
07:27PM 40.5022 -103.9258 76° East 485 558 37,000  Level Denver Center
07:28PM 40.5422 -103.7094 76° East 505 581 37,000  Level Denver Center
07:29PM 40.5728 -103.5292 77° East 506 582 37,000  Level Denver Center
07:30PM 40.5906 -103.3464 83° East 504 580 37,000 420 Level Denver Center
07:31PM 40.6031 -103.1631 85° East 504 580 37,900 900 Climbing Denver Center
07:32PM 40.6303 -102.9961 78° East 470 541 38,900 480 Climbing Denver Center
07:33PM 40.6847 -102.8011 70° East 473 544 39,000  Climbing Denver Center
07:34PM 40.7308 -102.6558 67° East 477 549 39,000  Level Denver Center
07:35PM 40.7833 -102.4711 69° East 481 554 39,000  Level Denver Center
07:36PM 40.8175 -102.3064 75° East 486 559 39,000  Level Denver Center
07:37PM 40.8472 -102.0825 80° East 486 559 39,000  Level Denver Center
07:39PM 40.8689 -101.8856 82° East 486 559 39,000  Level Denver Center
07:40PM 40.8975 -101.6897 79° East 487 560 39,000  Level Denver Center
07:41PM 40.9292 -101.4958 78° East 483 556 39,000  Level Denver Center
07:42PM 40.9561 -101.3275 78° East 487 560 39,000  Level Denver Center
07:43PM 40.9892 -101.1314 77° East 487 560 39,000  Level Denver Center
07:44PM 41.0164 -100.9639 78° East 484 557 39,000  Level Denver Center
07:45PM 41.0483 -100.7656 78° East 485 558 39,000  Level Denver Center
07:46PM 41.0750 -100.5947 78° East 488 562 39,000  Level Denver Center
07:47PM 41.1056 -100.3678 80° East 486 559 39,000  Level Denver Center
07:48PM 41.1314 -100.1972 79° East 490 564 39,000  Level Denver Center
07:49PM 41.1575 -99.9989 80° East 490 564 39,000  Level Denver Center
07:50PM 41.1822 -99.8300 79° East 488 562 39,000  Level Denver Center
07:51PM 41.2061 -99.6572 80° East 492 566 39,000  Level Denver Center
07:52PM 41.2331 -99.4589 80° East 491 565 39,000  Level Denver Center
07:54PM 41.2772 -99.1356 80° East 493 567 39,000  Level Minneapolis Center
07:55PM 41.2989 -98.9525 81° East 498 573 39,000  Level Minneapolis Center
07:56PM 41.3222 -98.7700 80° East 501 577 39,000  Level Minneapolis Center
07:57PM 41.3431 -98.5881 81° East 500 575 39,000  Level Minneapolis Center
07:58PM 41.3794 -98.3325 79° East 503 579 39,000  Level Minneapolis Center
08:00PM 41.4033 -98.1525 80° East 499 574 39,000  Level Minneapolis Center
08:01PM 41.4278 -97.9756 80° East 491 565 39,000  Level Minneapolis Center
08:02PM 41.4483 -97.7967 81° East 488 562 39,000  Level Minneapolis Center
08:03PM 41.4728 -97.6161 80° East 491 565 39,000  Level Minneapolis Center
08:04PM 41.4953 -97.4347 81° East 493 567 39,000  Level Minneapolis Center
08:05PM 41.5192 -97.2531 80° East 495 570 39,000  Level Minneapolis Center
08:06PM 41.5461 -97.0367 80° East 494 568 39,000  Level Minneapolis Center
08:07PM 41.5672 -96.8547 81° East 495 570 39,000  Level Minneapolis Center
08:08PM 41.5889 -96.6725 81° East 495 570 39,000  Level Minneapolis Center
08:09PM 41.6103 -96.4906 81° East 495 570 39,000  Level Minneapolis Center
08:10PM 41.6308 -96.3081 81° East 499 574 39,000  Level Minneapolis Center
08:11PM 41.6878 -96.1367 66° East 503 579 39,000  Level Minneapolis Center
08:12PM 41.7839 -96.0111 44° Northeast 478 550 39,000  Level Minneapolis Center
08:13PM 41.9028 -95.9306 27° Northeast 477 549 39,000  Level Minneapolis Center
08:14PM 42.0386 -95.8294 29° Northeast 467 537 39,000  Level Minneapolis Center
08:15PM 42.1156 -95.6858 54° Northeast 474 545 39,000  Level Minneapolis Center
08:16PM 42.1369 -95.5078 81° East 484 557 39,000  Level Minneapolis Center
08:17PM 42.1481 -95.3278 85° East 480 552 39,000  Level Minneapolis Center
08:18PM 42.1606 -95.1461 85° East 482 555 39,000  Level Minneapolis Center
08:19PM 42.1747 -94.9631 84° East 488 562 39,000  Level Minneapolis Center
08:20PM 42.1872 -94.7753 85° East 498 573 39,000 -60 Level Minneapolis Center
08:21PM 42.1997 -94.5922 85° East 492 566 38,900 -660 Descending Minneapolis Center
08:22PM 42.2150 -94.3650 85° East 504 580 37,700 -900 Descending Minneapolis Center
08:23PM 42.2272 -94.1878 85° East 506 582 37,100 -360 Descending Minneapolis Center
08:24PM 42.2383 -94.0028 85° East 502 578 37,000 -60 Descending Minneapolis Center
08:25PM 42.2511 -93.8161 85° East 504 580 37,000  Level Minneapolis Center
08:26PM 42.2647 -93.5964 85° East 497 572 37,000  Level Minneapolis Center
08:28PM 42.2614 -93.4136 91° East 493 567 37,000  Level Minneapolis Center
08:29PM 42.2528 -93.1933 93° East 495 570 37,000 -360 Level Minneapolis Center
08:29PM 42.2447 -93.0436 94° East 498 573 36,400 -1,020 Descending Chicago Center
08:30PM 42.2319 -92.8578 95° East 503 579 35,300 -840 Descending Chicago Center
08:31PM 42.2206 -92.6703 95° East 507 583 34,700 -540 Descending Chicago Center
08:32PM 42.2144 -92.4842 92° East 504 580 34,300 -600 Descending Chicago Center
08:33PM 42.2050 -92.2983 94° East 503 579 33,500 -1,020 Descending Chicago Center
08:34PM 42.1914 -92.0731 95° East 509 586 32,300 -1,200 Descending Chicago Center
08:35PM 42.1892 -91.8889 91° East 502 578 31,100 -1,320 Descending Chicago Center
08:37PM 42.1967 -91.7022 87° East 506 582 29,600 -1,500 Descending Chicago Center
08:38PM 42.2014 -91.5169 88° East 503 579 28,000 -1,800 Descending Chicago Center
08:39PM 42.2022 -91.2908 90° East 510 587 26,000 -1,680 Descending Chicago Center
08:40PM 42.2061 -91.1014 88° East 514 592 24,600 -1,380 Descending Chicago Center
08:41PM 42.2072 -90.9164 89° East 502 578 23,200 -1,320 Descending Chicago Center
08:42PM 42.2106 -90.7317 89° East 498 573 21,900 -1,680 Descending Chicago Center
08:43PM 42.2144 -90.5167 89° East 484 557 19,800 -1,800 Descending Chicago Center
08:44PM 42.2169 -90.3444 89° East 466 536 18,200 -1,500 Descending Chicago Center
08:45PM 42.2192 -90.1797 89° East 448 516 16,700 -1,620 Descending Chicago Center
08:46PM 42.2231 -90.0114 88° East 452 520 14,900 -1,500 Descending Chicago Center
08:47PM 42.2247 -89.8164 89° East 444 511 13,700 -1,440 Descending Chicago Center
08:48PM 42.2261 -89.6536 89° East 440 506 12,000 -1,620 Descending Chicago Center
08:49PM 42.2261 -89.4903 90° East 437 503 10,400 -1,020 Descending Chicago Center
08:50PM 42.2258 -89.3303 90° East 431 496 10,000 -300 Descending Chicago Center
08:51PM 42.2308 -89.1867 87° East 385 443 9,900  Descending Chicago Center
08:52PM 42.2631 -89.0597 71° East 360 414 10,000  Climbing Chicago Center
08:53PM 42.2992 -88.8861 74° East 401 461 9,900 -1,260 Descending Chicago Center
08:54PM 42.3236 -88.7642 75° East 346 398 7,400 -2,040 Descending Chicago Center
08:55PM 42.3531 -88.6578 69° East 323 372 5,700 -1,260 Descending Chicago Center
08:56PM 42.3844 -88.5656 65° Northeast 299 344 4,900 -420 Descending Chicago Center
08:57PM 42.3858 -88.4769 89° East 266 306 4,900 -420 Level Chicago Center
08:58PM 42.3725 -88.3692 99° East 246 283 4,100 -540 Descending Chicago Center
08:59PM 42.3614 -88.2656 98° East 258 297 3,900 -120 Descending Chicago Center
09:00PM 42.3517 -88.1664 98° East 265 305 3,900  Level Chicago Center
09:01PM 42.3333 -88.0831 107° East 252 290 3,900 -180 Level Chicago Center
09:02PM 42.2958 -88.0156 127° Southeast 237 273 3,600 -300 Descending Chicago Center
09:03PM 42.2517 -87.9678 141° Southeast 223 257 3,400 -660 Descending Chicago Center
09:04PM 42.2047 -87.9533 167° South 166 191 2,300 -840 Descending Chicago Center
09:05PM 42.1747 -87.9356 156° South 139 160 1,700 -600 Descending Chicago Center
09:08PM 42.1143 -87.9015 149° Southeast  Level Estimated
09:15PM 42.1143 -87.9015 149° Southeast  Level Estimated